createdAt,value
2022-09-27T00:02:33.202Z,67.52
2022-09-27T00:05:38.883Z,67.75
2022-09-27T00:08:44.602Z,68.02
2022-09-27T00:11:50.440Z,67.75
2022-09-27T00:14:55.857Z,67.37
2022-09-27T00:18:01.212Z,67.44
2022-09-27T00:21:12.135Z,67.35
2022-09-27T00:24:19.633Z,67.58
2022-09-27T00:27:26.289Z,67.88
2022-09-27T00:30:31.739Z,68.09
2022-09-27T00:33:37.057Z,68.21
2022-09-27T00:36:42.439Z,68.23
2022-09-27T00:39:47.801Z,68.01
2022-09-27T00:42:53.146Z,67.65
2022-09-27T00:46:03.886Z,67.52
2022-09-27T00:49:18.677Z,67.23
2022-09-27T00:52:28.663Z,67.05
2022-09-27T00:55:39.631Z,67.01
2022-09-27T00:58:49.921Z,66.91
2022-09-27T01:01:56.338Z,66.82
2022-09-27T01:05:02.443Z,67.18
2022-09-27T01:08:07.756Z,67.16
2022-09-27T01:11:36.916Z,67.20
2022-09-27T01:14:56.490Z,67.49
2022-09-27T01:18:22.344Z,67.41
2022-09-27T01:21:50.580Z,67.64
2022-09-27T01:25:14.137Z,67.78
2022-09-27T01:28:32.792Z,67.38
2022-09-27T01:31:44.352Z,67.18
2022-09-27T01:35:01.667Z,67.30
2022-09-27T01:38:19.214Z,67.30
2022-09-27T01:41:34.472Z,67.43
2022-09-27T01:44:46.535Z,67.52
2022-09-27T01:47:56.342Z,66.92
2022-09-27T01:51:08.012Z,66.99
2022-09-27T01:54:18.503Z,67.27
2022-09-27T01:57:28.689Z,67.41
2022-09-27T02:00:34.984Z,67.25
2022-09-27T02:03:42.057Z,67.05
2022-09-27T02:06:54.132Z,66.98
2022-09-27T02:10:03.957Z,66.33
2022-09-27T02:13:19.705Z,66.61
2022-09-27T02:16:35.169Z,66.82
2022-09-27T02:19:52.362Z,66.74
2022-09-27T02:23:04.613Z,66.46
2022-09-27T02:26:17.620Z,66.64
2022-09-27T02:29:29.203Z,66.74
2022-09-27T02:32:34.725Z,66.72
2022-09-27T02:35:40.087Z,66.41
2022-09-27T02:38:46.059Z,66.17
2022-09-27T02:41:52.129Z,66.38
2022-09-27T02:44:57.779Z,66.60
2022-09-27T02:48:13.129Z,66.95
2022-09-27T02:51:33.664Z,67.28
2022-09-27T02:54:53.554Z,67.34
2022-09-27T02:58:12.772Z,67.59
2022-09-27T03:01:26.247Z,67.38
2022-09-27T03:04:38.588Z,67.30
2022-09-27T03:07:44.281Z,67.26
2022-09-27T03:10:49.592Z,67.56
2022-09-27T03:14:08.377Z,67.78
2022-09-27T03:17:14.346Z,68.14
2022-09-27T03:20:19.895Z,68.15
2022-09-27T03:23:25.372Z,68.07
2022-09-27T03:26:30.796Z,68.03
2022-09-27T03:29:36.143Z,68.26
2022-09-27T03:32:45.291Z,68.26
2022-09-27T03:35:50.584Z,68.25
2022-09-27T03:38:56.394Z,68.25
2022-09-27T03:42:01.693Z,67.79
2022-09-27T03:45:08.388Z,67.49
2022-09-27T03:48:14.470Z,66.93
2022-09-27T03:51:20.742Z,66.55
2022-09-27T03:54:25.268Z,66.58
2022-09-27T03:57:32.063Z,66.44
2022-09-27T04:00:37.379Z,66.35
2022-09-27T04:03:42.824Z,66.18
2022-09-27T04:06:48.141Z,66.02
2022-09-27T04:09:53.452Z,65.75
2022-09-27T04:12:58.971Z,66.02
2022-09-27T04:16:04.844Z,66.10
2022-09-27T04:19:10.991Z,66.36
2022-09-27T04:22:15.930Z,66.54
2022-09-27T04:25:21.283Z,66.91
2022-09-27T04:28:28.056Z,66.78
2022-09-27T04:31:33.488Z,66.78
2022-09-27T04:34:56.600Z,66.88
2022-09-27T04:38:02.077Z,66.68
2022-09-27T04:41:07.835Z,66.48
2022-09-27T04:44:13.123Z,66.90
2022-09-27T04:47:21.149Z,66.91
2022-09-27T04:50:26.468Z,67.10
2022-09-27T04:53:32.327Z,67.54
2022-09-27T04:56:37.675Z,67.56
2022-09-27T04:59:43.116Z,67.39
2022-09-27T05:02:49.433Z,67.37
2022-09-27T05:05:55.535Z,67.78
2022-09-27T05:09:00.974Z,67.72
2022-09-27T05:12:07.865Z,67.67
2022-09-27T05:15:13.841Z,67.67
2022-09-27T05:18:19.153Z,67.54
2022-09-27T05:21:24.436Z,67.24
2022-09-27T05:24:30.476Z,67.01
2022-09-27T05:27:35.891Z,67.31
2022-09-27T05:30:41.249Z,67.49
2022-09-27T05:33:46.586Z,67.81
2022-09-27T05:36:52.069Z,67.96
2022-09-27T05:39:57.358Z,68.31
2022-09-27T05:43:02.648Z,68.81
2022-09-27T05:46:08.364Z,68.91
2022-09-27T05:49:13.741Z,69.24
2022-09-27T05:52:20.265Z,69.18
2022-09-27T05:55:27.056Z,69.35
2022-09-27T05:58:32.401Z,69.40
2022-09-27T06:01:37.828Z,69.59
2022-09-27T06:04:43.223Z,69.96
2022-09-27T06:07:49.705Z,70.53
2022-09-27T06:11:04.401Z,70.78
2022-09-27T06:14:09.910Z,71.29
2022-09-27T06:17:15.220Z,71.91
2022-09-27T06:20:20.893Z,72.64
2022-09-27T06:23:26.168Z,73.66
2022-09-27T06:26:31.997Z,74.31
2022-09-27T06:29:37.669Z,74.34
2022-09-27T06:32:42.998Z,74.32
2022-09-27T06:35:50.092Z,74.46
2022-09-27T06:38:55.389Z,74.78
2022-09-27T06:42:00.755Z,75.35
2022-09-27T06:45:07.419Z,75.50
2022-09-27T06:48:14.610Z,75.54
2022-09-27T06:51:20.322Z,75.61
2022-09-27T06:54:25.633Z,75.66
2022-09-27T06:57:48.941Z,75.64
2022-09-27T07:00:55.344Z,76.04
2022-09-27T07:04:00.757Z,75.92
2022-09-27T07:07:06.438Z,75.84
2022-09-27T07:10:12.656Z,76.05
2022-09-27T07:13:17.953Z,76.19
2022-09-27T07:16:23.335Z,75.87
2022-09-27T07:19:28.733Z,75.64
2022-09-27T07:22:34.093Z,75.56
2022-09-27T07:25:39.392Z,75.36
2022-09-27T07:28:45.195Z,74.98
2022-09-27T07:31:50.481Z,75.04
2022-09-27T07:34:55.775Z,75.09
2022-09-27T07:38:01.168Z,75.43
2022-09-27T07:41:11.053Z,75.22
2022-09-27T07:44:16.664Z,75.01
2022-09-27T07:47:24.161Z,74.83
2022-09-27T07:50:30.276Z,75.05
2022-09-27T07:53:34.183Z,74.26
2022-09-27T07:56:39.570Z,74.96
2022-09-27T07:59:45.345Z,74.51
2022-09-27T08:02:50.667Z,74.87
2022-09-27T08:05:56.001Z,75.04
2022-09-27T08:09:01.915Z,74.56
2022-09-27T08:12:07.528Z,73.31
2022-09-27T08:15:13.480Z,73.17
2022-09-27T08:18:22.035Z,72.98
2022-09-27T08:21:27.492Z,72.12
2022-09-27T08:24:32.842Z,70.86
2022-09-27T08:27:38.192Z,70.41
2022-09-27T08:30:43.497Z,70.20
2022-09-27T08:33:51.895Z,68.91
2022-09-27T08:36:57.355Z,69.68
2022-09-27T08:40:03.108Z,69.44
2022-09-27T08:43:18.994Z,68.77
2022-09-27T08:46:37.337Z,66.98
2022-09-27T08:49:46.968Z,67.44
2022-09-27T08:52:57.792Z,67.48
2022-09-27T08:56:04.408Z,67.60
2022-09-27T08:59:21.206Z,67.95
2022-09-27T09:02:27.433Z,67.82
2022-09-27T09:05:35.554Z,67.03
2022-09-27T09:08:52.374Z,66.11
2022-09-27T09:12:24.507Z,64.49
2022-09-27T09:15:54.514Z,64.82
2022-09-27T09:19:15.001Z,64.41
2022-09-27T09:22:43.491Z,63.05
2022-09-27T09:25:57.798Z,62.94
2022-09-27T09:29:23.997Z,64.28
2022-09-27T09:32:45.728Z,63.85
2022-09-27T09:35:59.183Z,63.38
2022-09-27T09:39:13.174Z,63.32
2022-09-27T09:42:26.442Z,62.83
2022-09-27T09:45:35.075Z,63.03
2022-09-27T09:48:46.696Z,63.27
2022-09-27T09:51:57.095Z,63.66
2022-09-27T09:55:08.468Z,63.14
2022-09-27T09:58:25.308Z,61.58
2022-09-27T10:01:35.784Z,60.37
2022-09-27T10:04:41.226Z,60.58
2022-09-27T10:07:48.356Z,59.86
2022-09-27T10:10:53.692Z,58.68
2022-09-27T10:13:59.084Z,58.74
2022-09-27T10:17:11.088Z,58.95
2022-09-27T10:20:27.450Z,58.71
2022-09-27T10:23:33.099Z,60.83
2022-09-27T10:26:40.857Z,59.98
2022-09-27T10:29:46.157Z,59.36
2022-09-27T10:32:57.055Z,60.49
2022-09-27T10:36:03.864Z,58.69
2022-09-27T10:39:21.928Z,57.83
2022-09-27T10:42:36.511Z,57.43
2022-09-27T10:45:42.001Z,58.67
2022-09-27T10:48:47.415Z,59.94
2022-09-27T10:51:56.506Z,58.29
2022-09-27T10:55:08.189Z,57.56
2022-09-27T10:58:22.024Z,57.62
2022-09-27T11:01:28.928Z,58.97
2022-09-27T11:04:37.257Z,58.60
2022-09-27T11:08:24.401Z,59.91
2022-09-27T11:11:30.902Z,59.72
2022-09-27T11:14:37.167Z,59.37
2022-09-27T11:17:52.162Z,59.79
2022-09-27T11:21:09.547Z,60.66
2022-09-27T11:24:27.026Z,60.54
2022-09-27T11:27:46.120Z,59.19
2022-09-27T11:31:04.014Z,57.71
2022-09-27T11:34:32.147Z,58.81
2022-09-27T11:37:49.178Z,57.43
2022-09-27T11:41:12.077Z,57.43
2022-09-27T11:44:33.806Z,57.72
2022-09-27T11:47:51.925Z,58.79
2022-09-27T11:51:11.754Z,56.31
2022-09-27T11:54:34.264Z,57.29
2022-09-27T11:57:44.679Z,56.98
2022-09-27T12:01:08.369Z,56.33
2022-09-27T12:04:33.727Z,55.53
2022-09-27T12:07:43.532Z,55.59
2022-09-27T12:10:54.816Z,57.61
2022-09-27T12:14:03.735Z,57.00
2022-09-27T12:17:14.468Z,57.61
2022-09-27T12:20:26.119Z,57.85
2022-09-27T12:23:40.993Z,59.78
2022-09-27T12:26:48.510Z,59.39
2022-09-27T12:29:56.690Z,58.83
2022-09-27T12:33:09.831Z,58.21
2022-09-27T12:36:21.163Z,59.11
2022-09-27T12:39:31.429Z,58.58
2022-09-27T12:42:42.670Z,59.17
2022-09-27T12:46:02.205Z,59.26
2022-09-27T12:49:14.482Z,59.08
2022-09-27T12:52:25.770Z,58.93
2022-09-27T12:55:53.715Z,60.23
2022-09-27T12:59:18.887Z,60.58
2022-09-27T13:03:10.997Z,59.11
2022-09-27T13:06:40.224Z,59.12
2022-09-27T13:10:15.979Z,58.99
2022-09-27T13:13:26.407Z,58.87
2022-09-27T13:16:32.625Z,58.24
2022-09-27T13:19:44.227Z,59.78
2022-09-27T13:22:50.551Z,60.17
2022-09-27T13:25:58.266Z,58.21
2022-09-27T13:29:05.138Z,58.80
2022-09-27T13:32:23.413Z,57.93
2022-09-27T13:35:30.042Z,59.05
2022-09-27T13:38:36.326Z,60.80
2022-09-27T13:42:05.002Z,61.29
2022-09-27T13:45:24.321Z,59.46
2022-09-27T13:48:40.492Z,61.48
2022-09-27T13:51:51.059Z,64.33
2022-09-27T13:54:59.790Z,63.83
2022-09-27T13:58:13.961Z,62.78
2022-09-27T14:01:28.570Z,61.48
2022-09-27T14:04:42.454Z,60.29
2022-09-27T14:07:52.030Z,59.41
2022-09-27T14:10:59.938Z,59.12
2022-09-27T14:14:07.713Z,60.19
2022-09-27T14:17:14.643Z,60.66
2022-09-27T14:20:47.274Z,61.64
2022-09-27T14:23:53.907Z,60.48
2022-09-27T14:27:17.466Z,62.27
2022-09-27T14:30:27.879Z,64.23
2022-09-27T14:33:35.533Z,64.47
2022-09-27T14:37:02.276Z,63.25
2022-09-27T14:40:20.636Z,62.32
2022-09-27T14:43:27.157Z,62.31
2022-09-27T14:46:34.527Z,62.10
2022-09-27T14:49:50.129Z,61.66
2022-09-27T14:52:57.793Z,61.60
2022-09-27T14:56:08.395Z,61.38
2022-09-27T14:59:18.947Z,61.61
2022-09-27T15:02:26.598Z,61.19
2022-09-27T15:05:34.884Z,60.96
2022-09-27T15:08:41.886Z,61.02
2022-09-27T15:11:52.989Z,61.07
2022-09-27T15:14:59.607Z,60.46
2022-09-27T15:18:20.471Z,60.58
2022-09-27T15:21:35.093Z,60.10
2022-09-27T15:24:45.623Z,59.80
2022-09-27T15:27:54.803Z,59.97
2022-09-27T15:31:01.773Z,59.51
2022-09-27T15:34:08.184Z,58.22
2022-09-27T15:37:28.427Z,58.78
2022-09-27T15:41:02.221Z,60.41
2022-09-27T15:44:36.591Z,62.81
2022-09-27T15:47:48.637Z,62.44
2022-09-27T15:50:55.130Z,62.11
2022-09-27T15:54:01.283Z,62.11
2022-09-27T15:57:12.635Z,61.40
2022-09-27T16:00:20.946Z,61.69
2022-09-27T16:03:28.175Z,60.88
2022-09-27T16:06:34.361Z,60.71
2022-09-27T16:09:40.783Z,60.93
2022-09-27T16:12:46.718Z,61.39
2022-09-27T16:15:53.450Z,61.73
2022-09-27T16:18:59.701Z,61.78
2022-09-27T16:22:05.695Z,63.18
2022-09-27T16:25:10.515Z,63.81
2022-09-27T16:28:16.598Z,64.04
2022-09-27T16:31:21.274Z,62.96
2022-09-27T16:34:27.869Z,62.36
2022-09-27T16:37:34.913Z,62.17
2022-09-27T16:40:41.039Z,62.33
2022-09-27T16:43:47.189Z,62.67
2022-09-27T16:46:53.317Z,62.91
2022-09-27T16:50:17.024Z,63.34
2022-09-27T16:53:23.190Z,63.81
2022-09-27T16:56:32.341Z,63.74
2022-09-27T16:59:38.795Z,63.80
2022-09-27T17:02:47.234Z,63.13
2022-09-27T17:05:53.482Z,63.20
2022-09-27T17:08:58.157Z,62.94
2022-09-27T17:12:07.595Z,62.94
2022-09-27T17:15:17.352Z,62.86
2022-09-27T17:18:23.345Z,63.10
2022-09-27T17:21:29.499Z,63.44
2022-09-27T17:24:33.982Z,63.58
2022-09-27T17:27:40.103Z,63.86
2022-09-27T17:30:45.448Z,63.80
2022-09-27T17:33:57.412Z,63.01
2022-09-27T17:37:05.182Z,63.09
2022-09-27T17:40:12.499Z,63.74
2022-09-27T17:43:18.526Z,63.89
2022-09-27T17:46:26.028Z,63.99
2022-09-27T17:49:49.562Z,64.17
2022-09-27T17:52:57.454Z,64.31
2022-09-27T17:56:05.579Z,64.53
2022-09-27T17:59:13.477Z,64.56
2022-09-27T18:02:20.382Z,64.35
2022-09-27T18:05:26.583Z,64.46
2022-09-27T18:08:32.409Z,64.62
2022-09-27T18:11:39.313Z,64.84
2022-09-27T18:14:45.957Z,64.69
2022-09-27T18:17:58.299Z,64.64
2022-09-27T18:21:06.210Z,64.59
2022-09-27T18:24:14.405Z,64.44
2022-09-27T18:27:21.327Z,64.53
2022-09-27T18:30:27.426Z,64.68
2022-09-27T18:33:32.201Z,64.77
2022-09-27T18:36:41.102Z,64.99
2022-09-27T18:39:47.222Z,65.00
2022-09-27T18:42:51.654Z,65.14
2022-09-27T18:46:17.812Z,65.39
2022-09-27T18:49:32.989Z,65.33
2022-09-27T18:52:40.077Z,65.20
2022-09-27T18:55:44.474Z,65.31
2022-09-27T18:58:51.898Z,65.70
2022-09-27T19:01:58.033Z,65.32
2022-09-27T19:05:03.375Z,65.55
2022-09-27T19:08:09.504Z,65.90
2022-09-27T19:11:14.377Z,65.96
2022-09-27T19:14:23.542Z,65.93
2022-09-27T19:17:29.635Z,65.90
2022-09-27T19:20:35.750Z,66.04
2022-09-27T19:23:44.906Z,66.41
2022-09-27T19:26:53.811Z,66.28
2022-09-27T19:30:00.411Z,66.39
2022-09-27T19:33:06.618Z,66.46
2022-09-27T19:36:14.666Z,66.46
2022-09-27T19:39:21.053Z,66.63
2022-09-27T19:42:27.100Z,66.77
2022-09-27T19:45:35.598Z,66.74
2022-09-27T19:48:42.036Z,66.70
2022-09-27T19:51:48.005Z,66.63
2022-09-27T19:54:54.045Z,66.68
2022-09-27T19:58:00.478Z,66.72
2022-09-27T20:01:08.651Z,66.65
2022-09-27T20:04:16.026Z,66.73
2022-09-27T20:07:22.123Z,66.84
2022-09-27T20:10:26.600Z,66.97
2022-09-27T20:13:33.764Z,66.99
2022-09-27T20:16:41.494Z,66.86
2022-09-27T20:19:47.838Z,66.76
2022-09-27T20:22:53.998Z,66.85
2022-09-27T20:26:05.141Z,67.03
2022-09-27T20:29:11.983Z,67.11
2022-09-27T20:32:33.624Z,66.96
2022-09-27T20:35:39.830Z,67.06
2022-09-27T20:38:47.826Z,67.09
2022-09-27T20:41:54.092Z,67.07
2022-09-27T20:45:00.433Z,67.10
2022-09-27T20:48:06.927Z,67.02
2022-09-27T20:51:15.419Z,66.99
2022-09-27T20:54:21.536Z,67.04
2022-09-27T20:57:46.221Z,67.28
2022-09-27T21:00:52.799Z,67.47
2022-09-27T21:04:00.379Z,67.34
2022-09-27T21:07:06.518Z,67.24
2022-09-27T21:10:11.363Z,67.26
2022-09-27T21:13:18.103Z,67.41
2022-09-27T21:16:26.094Z,67.11
2022-09-27T21:19:32.329Z,67.16
2022-09-27T21:22:36.806Z,67.19
2022-09-27T21:25:43.023Z,67.34
2022-09-27T21:28:48.526Z,67.22
2022-09-27T21:31:54.741Z,67.46
2022-09-27T21:35:01.132Z,67.51
2022-09-27T21:38:07.338Z,67.66
2022-09-27T21:41:14.787Z,67.71
2022-09-27T21:44:20.957Z,67.85
2022-09-27T21:47:25.414Z,67.78
2022-09-27T21:50:32.114Z,67.93
2022-09-27T21:53:39.625Z,67.85
2022-09-27T21:56:46.693Z,67.92
2022-09-27T21:59:52.835Z,67.90
2022-09-27T22:02:59.800Z,67.83
2022-09-27T22:06:07.279Z,67.99
2022-09-27T22:09:17.179Z,67.92
2022-09-27T22:12:23.449Z,67.91
2022-09-27T22:15:29.614Z,68.04
2022-09-27T22:18:35.450Z,68.08
2022-09-27T22:21:40.069Z,68.15
2022-09-27T22:24:46.167Z,68.21
2022-09-27T22:27:50.845Z,68.01
2022-09-27T22:30:57.306Z,68.08
2022-09-27T22:34:04.730Z,67.93
2022-09-27T22:37:10.877Z,67.88
2022-09-27T22:40:15.502Z,67.98
2022-09-27T22:43:21.751Z,68.12
2022-09-27T22:46:26.536Z,68.01
2022-09-27T22:49:32.690Z,68.00
2022-09-27T22:52:37.138Z,67.99
2022-09-27T22:55:43.498Z,68.15
2022-09-27T22:58:50.577Z,67.89
2022-09-27T23:01:56.718Z,67.82
2022-09-27T23:05:01.148Z,67.76
2022-09-27T23:08:07.294Z,67.91
2022-09-27T23:11:12.694Z,67.87
2022-09-27T23:14:21.692Z,68.11
2022-09-27T23:17:27.645Z,68.19
2022-09-27T23:20:33.702Z,68.18
2022-09-27T23:23:42.061Z,68.22
2022-09-27T23:27:09.287Z,68.19
2022-09-27T23:30:17.408Z,68.35
2022-09-27T23:33:23.589Z,68.37
2022-09-27T23:36:28.266Z,68.34
2022-09-27T23:39:34.359Z,68.40
2022-09-27T23:42:38.800Z,68.38
2022-09-27T23:45:45.155Z,68.46
2022-09-27T23:48:51.230Z,68.19
2022-09-27T23:51:57.620Z,68.05
2022-09-27T23:55:03.949Z,67.97
2022-09-27T23:58:10.694Z,67.89
